sensor_id;sensor_type;location;lat;lon;timestamp;P1;durP1;ratioP1;P2;durP2;ratioP2
17369;SDS011;8802;52.402;4.920;2023-04-01T00:01:28;15.48;;;6.28;;
17369;SDS011;8802;52.402;4.920;2023-04-01T00:03:55;14.52;;;6.35;;
17369;SDS011;8802;52.402;4.920;2023-04-01T00:06:22;14.60;;;5.93;;
17369;SDS011;8802;52.402;4.920;2023-04-01T00:08:49;14.98;;;5.80;;
17369;SDS011;8802;52.402;4.920;2023-04-01T00:11:17;12.23;;;5.28;;
17369;SDS011;8802;52.402;4.920;2023-04-01T00:13:45;11.05;;;5.07;;
17369;SDS011;8802;52.402;4.920;2023-04-01T00:16:13;11.02;;;4.38;;
17369;SDS011;8802;52.402;4.920;2023-04-01T00:18:40;6.72;;;3.30;;
17369;SDS011;8802;52.402;4.920;2023-04-01T00:21:07;10.23;;;3.10;;
17369;SDS011;8802;52.402;4.920;2023-04-01T00:23:34;5.43;;;2.58;;
17369;SDS011;8802;52.402;4.920;2023-04-01T00:26:01;8.40;;;2.90;;
17369;SDS011;8802;52.402;4.920;2023-04-01T00:28:29;7.47;;;3.13;;
17369;SDS011;8802;52.402;4.920;2023-04-01T00:30:57;5.20;;;2.10;;
17369;SDS011;8802;52.402;4.920;2023-04-01T00:33:24;6.28;;;2.55;;
17369;SDS011;8802;52.402;4.920;2023-04-01T00:35:52;6.80;;;2.63;;
17369;SDS011;8802;52.402;4.920;2023-04-01T00:38:19;6.55;;;2.42;;
17369;SDS011;8802;52.402;4.920;2023-04-01T00:40:46;8.10;;;2.60;;
17369;SDS011;8802;52.402;4.920;2023-04-01T00:43:15;5.28;;;2.53;;
17369;SDS011;8802;52.402;4.920;2023-04-01T00:45:44;6.40;;;2.28;;
17369;SDS011;8802;52.402;4.920;2023-04-01T00:48:14;6.38;;;2.53;;
17369;SDS011;8802;52.402;4.920;2023-04-01T00:50:44;7.63;;;2.92;;
17369;SDS011;8802;52.402;4.920;2023-04-01T00:53:14;7.43;;;3.53;;
17369;SDS011;8802;52.402;4.920;2023-04-01T00:55:45;8.15;;;3.88;;
17369;SDS011;8802;52.402;4.920;2023-04-01T00:58:16;8.45;;;3.95;;
17369;SDS011;8802;52.402;4.920;2023-04-01T01:00:46;10.70;;;5.10;;
17369;SDS011;8802;52.402;4.920;2023-04-01T01:03:17;9.05;;;4.97;;
17369;SDS011;8802;52.402;4.920;2023-04-01T01:05:52;9.85;;;5.43;;
17369;SDS011;8802;52.402;4.920;2023-04-01T01:08:37;12.70;;;6.10;;
17369;SDS011;8802;52.402;4.920;2023-04-01T01:11:13;10.88;;;6.05;;
17369;SDS011;8802;52.402;4.920;2023-04-01T01:13:43;11.15;;;5.90;;
17369;SDS011;8802;52.402;4.920;2023-04-01T01:16:20;11.77;;;6.35;;
17369;SDS011;8802;52.402;4.920;2023-04-01T01:18:53;10.65;;;6.22;;
17369;SDS011;8802;52.402;4.920;2023-04-01T01:21:37;11.48;;;7.03;;
17369;SDS011;8802;52.402;4.920;2023-04-01T01:24:30;12.20;;;6.53;;
17369;SDS011;8802;52.402;4.920;2023-04-01T01:27:08;10.98;;;6.65;;
17369;SDS011;8802;52.402;4.920;2023-04-01T01:29:46;12.60;;;7.80;;
17369;SDS011;8802;52.402;4.920;2023-04-01T01:35:15;17.13;;;9.18;;
17369;SDS011;8802;52.402;4.920;2023-04-01T01:37:46;13.95;;;9.00;;
17369;SDS011;8802;52.402;4.920;2023-04-01T01:40:17;15.70;;;9.52;;
17369;SDS011;8802;52.402;4.920;2023-04-01T01:42:46;13.25;;;8.95;;
17369;SDS011;8802;52.402;4.920;2023-04-01T01:45:18;15.75;;;9.57;;
17369;SDS011;8802;52.402;4.920;2023-04-01T01:47:47;15.18;;;8.98;;
17369;SDS011;8802;52.402;4.920;2023-04-01T01:50:18;11.98;;;8.65;;
17369;SDS011;8802;52.402;4.920;2023-04-01T01:52:47;12.00;;;8.15;;
17369;SDS011;8802;52.402;4.920;2023-04-01T01:55:24;10.73;;;8.93;;
17369;SDS011;8802;52.402;4.920;2023-04-01T01:57:54;13.02;;;9.68;;
17369;SDS011;8802;52.402;4.920;2023-04-01T02:00:24;12.50;;;9.60;;
17369;SDS011;8802;52.402;4.920;2023-04-01T02:02:52;16.15;;;10.85;;
17369;SDS011;8802;52.402;4.920;2023-04-01T02:05:21;11.38;;;8.52;;
17369;SDS011;8802;52.402;4.920;2023-04-01T02:07:55;16.33;;;9.07;;
17369;SDS011;8802;52.402;4.920;2023-04-01T02:10:27;14.23;;;9.32;;
17369;SDS011;8802;52.402;4.920;2023-04-01T02:12:58;12.52;;;8.52;;
17369;SDS011;8802;52.402;4.920;2023-04-01T02:15:28;12.32;;;8.10;;
17369;SDS011;8802;52.402;4.920;2023-04-01T02:17:59;14.35;;;8.32;;
17369;SDS011;8802;52.402;4.920;2023-04-01T02:20:29;13.45;;;8.68;;
17369;SDS011;8802;52.402;4.920;2023-04-01T02:22:56;14.10;;;8.15;;
17369;SDS011;8802;52.402;4.920;2023-04-01T02:25:26;13.48;;;7.43;;
17369;SDS011;8802;52.402;4.920;2023-04-01T02:27:55;11.45;;;7.55;;
17369;SDS011;8802;52.402;4.920;2023-04-01T02:30:24;11.18;;;8.18;;
17369;SDS011;8802;52.402;4.920;2023-04-01T02:32:55;12.35;;;8.43;;
17369;SDS011;8802;52.402;4.920;2023-04-01T02:35:23;10.77;;;7.57;;
17369;SDS011;8802;52.402;4.920;2023-04-01T02:37:53;15.93;;;9.15;;
17369;SDS011;8802;52.402;4.920;2023-04-01T02:40:21;10.40;;;7.40;;
17369;SDS011;8802;52.402;4.920;2023-04-01T02:42:48;11.05;;;8.10;;
17369;SDS011;8802;52.402;4.920;2023-04-01T02:45:15;12.18;;;8.68;;
17369;SDS011;8802;52.402;4.920;2023-04-01T02:47:42;11.27;;;7.80;;
17369;SDS011;8802;52.402;4.920;2023-04-01T02:50:09;12.20;;;8.43;;
17369;SDS011;8802;52.402;4.920;2023-04-01T02:52:36;11.18;;;8.98;;
17369;SDS011;8802;52.402;4.920;2023-04-01T02:55:05;11.65;;;8.88;;
17369;SDS011;8802;52.402;4.920;2023-04-01T02:57:32;9.55;;;7.93;;
17369;SDS011;8802;52.402;4.920;2023-04-01T02:59:59;11.15;;;8.23;;
17369;SDS011;8802;52.402;4.920;2023-04-01T03:02:26;8.60;;;7.55;;
17369;SDS011;8802;52.402;4.920;2023-04-01T03:04:53;8.38;;;7.57;;
17369;SDS011;8802;52.402;4.920;2023-04-01T03:07:20;8.32;;;7.38;;
17369;SDS011;8802;52.402;4.920;2023-04-01T03:09:47;7.28;;;6.57;;
17369;SDS011;8802;52.402;4.920;2023-04-01T03:12:15;7.30;;;6.57;;
17369;SDS011;8802;52.402;4.920;2023-04-01T03:14:42;7.15;;;6.45;;
17369;SDS011;8802;52.402;4.920;2023-04-01T03:17:08;8.00;;;7.30;;
17369;SDS011;8802;52.402;4.920;2023-04-01T03:19:35;6.80;;;6.20;;
17369;SDS011;8802;52.402;4.920;2023-04-01T03:22:02;7.80;;;6.65;;
17369;SDS011;8802;52.402;4.920;2023-04-01T03:24:29;8.52;;;7.68;;
17369;SDS011;8802;52.402;4.920;2023-04-01T03:26:56;8.02;;;7.22;;
17369;SDS011;8802;52.402;4.920;2023-04-01T03:29:24;7.57;;;6.88;;
17369;SDS011;8802;52.402;4.920;2023-04-01T03:31:51;7.43;;;6.72;;
17369;SDS011;8802;52.402;4.920;2023-04-01T03:34:18;7.63;;;6.88;;
17369;SDS011;8802;52.402;4.920;2023-04-01T03:36:45;7.32;;;6.63;;
17369;SDS011;8802;52.402;4.920;2023-04-01T03:39:11;7.57;;;6.90;;
17369;SDS011;8802;52.402;4.920;2023-04-01T03:41:38;8.05;;;7.25;;
17369;SDS011;8802;52.402;4.920;2023-04-01T03:44:05;8.68;;;7.72;;
17369;SDS011;8802;52.402;4.920;2023-04-01T03:46:33;7.90;;;7.20;;
17369;SDS011;8802;52.402;4.920;2023-04-01T03:49:00;8.02;;;7.32;;
17369;SDS011;8802;52.402;4.920;2023-04-01T03:51:28;7.82;;;7.13;;
17369;SDS011;8802;52.402;4.920;2023-04-01T03:53:55;7.05;;;6.43;;
17369;SDS011;8802;52.402;4.920;2023-04-01T03:56:21;8.05;;;7.25;;
17369;SDS011;8802;52.402;4.920;2023-04-01T03:58:48;8.25;;;7.47;;
17369;SDS011;8802;52.402;4.920;2023-04-01T04:01:16;8.20;;;7.40;;
17369;SDS011;8802;52.402;4.920;2023-04-01T04:03:47;8.95;;;8.05;;
17369;SDS011;8802;52.402;4.920;2023-04-01T04:06:15;7.60;;;6.90;;
17369;SDS011;8802;52.402;4.920;2023-04-01T04:08:43;9.32;;;8.52;;
17369;SDS011;8802;52.402;4.920;2023-04-01T04:11:10;6.85;;;6.25;;
17369;SDS011;8802;52.402;4.920;2023-04-01T04:13:37;7.75;;;7.05;;
17369;SDS011;8802;52.402;4.920;2023-04-01T04:16:04;9.20;;;7.90;;
17369;SDS011;8802;52.402;4.920;2023-04-01T04:18:32;8.18;;;7.47;;
17369;SDS011;8802;52.402;4.920;2023-04-01T04:21:00;8.23;;;7.45;;
17369;SDS011;8802;52.402;4.920;2023-04-01T04:23:27;7.88;;;7.03;;
17369;SDS011;8802;52.402;4.920;2023-04-01T04:25:56;6.78;;;6.18;;
17369;SDS011;8802;52.402;4.920;2023-04-01T04:28:24;7.03;;;6.32;;
17369;SDS011;8802;52.402;4.920;2023-04-01T04:30:52;7.78;;;7.07;;
17369;SDS011;8802;52.402;4.920;2023-04-01T04:33:19;7.22;;;6.45;;
17369;SDS011;8802;52.402;4.920;2023-04-01T04:35:46;7.25;;;6.57;;
17369;SDS011;8802;52.402;4.920;2023-04-01T04:38:15;6.97;;;6.25;;
17369;SDS011;8802;52.402;4.920;2023-04-01T04:40:42;7.18;;;6.47;;
17369;SDS011;8802;52.402;4.920;2023-04-01T04:43:10;7.70;;;7.00;;
17369;SDS011;8802;52.402;4.920;2023-04-01T04:45:38;7.15;;;6.47;;
17369;SDS011;8802;52.402;4.920;2023-04-01T04:48:06;7.15;;;6.45;;
17369;SDS011;8802;52.402;4.920;2023-04-01T04:50:34;7.25;;;6.57;;
17369;SDS011;8802;52.402;4.920;2023-04-01T04:53:01;6.90;;;6.30;;
17369;SDS011;8802;52.402;4.920;2023-04-01T04:55:29;8.18;;;6.25;;
17369;SDS011;8802;52.402;4.920;2023-04-01T04:57:56;6.65;;;6.07;;
17369;SDS011;8802;52.402;4.920;2023-04-01T05:00:23;6.88;;;6.28;;
17369;SDS011;8802;52.402;4.920;2023-04-01T05:02:50;6.68;;;6.18;;
17369;SDS011;8802;52.402;4.920;2023-04-01T05:05:17;7.38;;;6.15;;
17369;SDS011;8802;52.402;4.920;2023-04-01T05:07:44;6.72;;;6.13;;
17369;SDS011;8802;52.402;4.920;2023-04-01T05:10:11;7.38;;;6.68;;
17369;SDS011;8802;52.402;4.920;2023-04-01T05:12:39;8.60;;;7.80;;
17369;SDS011;8802;52.402;4.920;2023-04-01T05:15:06;8.48;;;7.32;;
17369;SDS011;8802;52.402;4.920;2023-04-01T05:17:33;7.45;;;6.75;;
17369;SDS011;8802;52.402;4.920;2023-04-01T05:20:00;7.70;;;7.00;;
17369;SDS011;8802;52.402;4.920;2023-04-01T05:22:28;7.63;;;6.93;;
17369;SDS011;8802;52.402;4.920;2023-04-01T05:24:55;8.05;;;7.25;;
17369;SDS011;8802;52.402;4.920;2023-04-01T05:27:22;8.63;;;7.80;;
17369;SDS011;8802;52.402;4.920;2023-04-01T05:29:50;9.40;;;8.50;;
17369;SDS011;8802;52.402;4.920;2023-04-01T05:32:17;9.20;;;8.02;;
17369;SDS011;8802;52.402;4.920;2023-04-01T05:34:44;10.70;;;8.65;;
17369;SDS011;8802;52.402;4.920;2023-04-01T05:37:10;8.30;;;7.50;;
17369;SDS011;8802;52.402;4.920;2023-04-01T05:39:38;9.43;;;8.52;;
17369;SDS011;8802;52.402;4.920;2023-04-01T05:42:05;9.32;;;8.35;;
17369;SDS011;8802;52.402;4.920;2023-04-01T05:44:33;10.07;;;9.07;;
17369;SDS011;8802;52.402;4.920;2023-04-01T05:47:01;9.75;;;8.82;;
17369;SDS011;8802;52.402;4.920;2023-04-01T05:49:29;9.95;;;8.93;;
17369;SDS011;8802;52.402;4.920;2023-04-01T05:51:56;10.60;;;9.50;;
17369;SDS011;8802;52.402;4.920;2023-04-01T05:54:23;13.52;;;10.40;;
17369;SDS011;8802;52.402;4.920;2023-04-01T05:56:50;14.18;;;10.80;;
17369;SDS011;8802;52.402;4.920;2023-04-01T05:59:17;12.20;;;10.10;;
17369;SDS011;8802;52.402;4.920;2023-04-01T06:01:44;13.10;;;11.55;;
17369;SDS011;8802;52.402;4.920;2023-04-01T06:04:14;15.18;;;12.07;;
17369;SDS011;8802;52.402;4.920;2023-04-01T06:06:42;14.07;;;12.55;;
17369;SDS011;8802;52.402;4.920;2023-04-01T06:09:12;12.13;;;10.15;;
17369;SDS011;8802;52.402;4.920;2023-04-01T06:11:44;12.60;;;11.23;;
17369;SDS011;8802;52.402;4.920;2023-04-01T06:14:37;12.98;;;10.35;;
17369;SDS011;8802;52.402;4.920;2023-04-01T06:17:18;14.88;;;11.38;;
17369;SDS011;8802;52.402;4.920;2023-04-01T06:19:55;12.75;;;10.40;;
17369;SDS011;8802;52.402;4.920;2023-04-01T06:22:35;15.23;;;10.60;;
17369;SDS011;8802;52.402;4.920;2023-04-01T06:25:21;12.52;;;9.43;;
17369;SDS011;8802;52.402;4.920;2023-04-01T06:28:07;12.10;;;9.32;;
17369;SDS011;8802;52.402;4.920;2023-04-01T06:31:02;10.70;;;8.80;;
17369;SDS011;8802;52.402;4.920;2023-04-01T06:36:49;12.23;;;9.30;;
17369;SDS011;8802;52.402;4.920;2023-04-01T06:39:36;13.68;;;9.32;;
17369;SDS011;8802;52.402;4.920;2023-04-01T06:42:40;12.88;;;8.48;;
17369;SDS011;8802;52.402;4.920;2023-04-01T06:45:20;10.93;;;9.10;;
17369;SDS011;8802;52.402;4.920;2023-04-01T06:48:02;10.07;;;8.23;;
17369;SDS011;8802;52.402;4.920;2023-04-01T06:50:40;10.95;;;9.15;;
17369;SDS011;8802;52.402;4.920;2023-04-01T06:53:18;11.30;;;9.60;;
17369;SDS011;8802;52.402;4.920;2023-04-01T06:55:55;12.45;;;9.90;;
17369;SDS011;8802;52.402;4.920;2023-04-01T06:58:27;14.68;;;10.82;;
17369;SDS011;8802;52.402;4.920;2023-04-01T07:01:01;14.45;;;11.65;;
17369;SDS011;8802;52.402;4.920;2023-04-01T07:03:31;15.48;;;11.02;;
17369;SDS011;8802;52.402;4.920;2023-04-01T07:06:01;13.23;;;9.80;;
17369;SDS011;8802;52.402;4.920;2023-04-01T07:08:31;13.77;;;9.48;;
17369;SDS011;8802;52.402;4.920;2023-04-01T07:11:02;14.25;;;11.68;;
17369;SDS011;8802;52.402;4.920;2023-04-01T07:13:31;13.57;;;10.75;;
17369;SDS011;8802;52.402;4.920;2023-04-01T07:16:07;13.88;;;10.18;;
17369;SDS011;8802;52.402;4.920;2023-04-01T07:18:39;13.57;;;10.45;;
17369;SDS011;8802;52.402;4.920;2023-04-01T07:21:13;12.80;;;9.65;;
17369;SDS011;8802;52.402;4.920;2023-04-01T07:23:52;14.27;;;10.52;;
17369;SDS011;8802;52.402;4.920;2023-04-01T07:26:24;16.55;;;10.60;;
17369;SDS011;8802;52.402;4.920;2023-04-01T07:28:52;14.68;;;10.43;;
17369;SDS011;8802;52.402;4.920;2023-04-01T07:31:23;15.50;;;11.27;;
17369;SDS011;8802;52.402;4.920;2023-04-01T07:33:59;12.52;;;10.30;;
17369;SDS011;8802;52.402;4.920;2023-04-01T07:36:33;14.40;;;10.55;;
17369;SDS011;8802;52.402;4.920;2023-04-01T07:39:08;13.15;;;11.07;;
17369;SDS011;8802;52.402;4.920;2023-04-01T07:41:47;13.85;;;10.65;;
17369;SDS011;8802;52.402;4.920;2023-04-01T07:44:23;13.60;;;10.43;;
17369;SDS011;8802;52.402;4.920;2023-04-01T07:47:01;13.88;;;9.73;;
17369;SDS011;8802;52.402;4.920;2023-04-01T07:49:37;14.15;;;9.88;;
17369;SDS011;8802;52.402;4.920;2023-04-01T07:52:11;12.82;;;10.35;;
17369;SDS011;8802;52.402;4.920;2023-04-01T07:54:44;13.48;;;9.32;;
17369;SDS011;8802;52.402;4.920;2023-04-01T07:57:20;14.18;;;9.90;;
17369;SDS011;8802;52.402;4.920;2023-04-01T07:59:54;14.05;;;9.82;;
17369;SDS011;8802;52.402;4.920;2023-04-01T08:02:28;12.93;;;10.32;;
17369;SDS011;8802;52.402;4.920;2023-04-01T08:05:08;12.05;;;8.98;;
17369;SDS011;8802;52.402;4.920;2023-04-01T08:07:46;12.43;;;10.13;;
17369;SDS011;8802;52.402;4.920;2023-04-01T08:10:21;11.85;;;9.07;;
17369;SDS011;8802;52.402;4.920;2023-04-01T08:12:56;12.85;;;9.15;;
17369;SDS011;8802;52.402;4.920;2023-04-01T08:15:31;11.43;;;8.25;;
17369;SDS011;8802;52.402;4.920;2023-04-01T08:18:09;11.30;;;8.57;;
17369;SDS011;8802;52.402;4.920;2023-04-01T08:20:44;10.80;;;8.48;;
17369;SDS011;8802;52.402;4.920;2023-04-01T08:23:16;12.23;;;9.50;;
17369;SDS011;8802;52.402;4.920;2023-04-01T08:25:48;9.50;;;8.13;;
17369;SDS011;8802;52.402;4.920;2023-04-01T08:28:20;11.35;;;8.20;;
17369;SDS011;8802;52.402;4.920;2023-04-01T08:30:52;8.43;;;7.07;;
17369;SDS011;8802;52.402;4.920;2023-04-01T08:33:24;10.23;;;7.80;;
17369;SDS011;8802;52.402;4.920;2023-04-01T08:35:54;8.05;;;7.07;;
17369;SDS011;8802;52.402;4.920;2023-04-01T08:38:25;7.53;;;6.50;;
17369;SDS011;8802;52.402;4.920;2023-04-01T08:43:55;7.70;;;6.50;;
17369;SDS011;8802;52.402;4.920;2023-04-01T08:49:49;7.93;;;5.95;;
17369;SDS011;8802;52.402;4.920;2023-04-01T08:52:40;7.75;;;5.90;;
17369;SDS011;8802;52.402;4.920;2023-04-01T08:55:23;8.43;;;6.47;;
17369;SDS011;8802;52.402;4.920;2023-04-01T09:01:09;8.32;;;6.60;;
17369;SDS011;8802;52.402;4.920;2023-04-01T09:03:46;8.20;;;7.38;;
17369;SDS011;8802;52.402;4.920;2023-04-01T09:06:38;9.10;;;7.00;;
17369;SDS011;8802;52.402;4.920;2023-04-01T09:12:12;8.65;;;7.25;;
17369;SDS011;8802;52.402;4.920;2023-04-01T09:18:12;8.93;;;7.75;;
17369;SDS011;8802;52.402;4.920;2023-04-01T09:20:53;11.30;;;9.45;;
17369;SDS011;8802;52.402;4.920;2023-04-01T09:26:43;11.40;;;9.30;;
17369;SDS011;8802;52.402;4.920;2023-04-01T09:29:23;11.88;;;10.50;;
17369;SDS011;8802;52.402;4.920;2023-04-01T09:32:09;10.63;;;9.45;;
17369;SDS011;8802;52.402;4.920;2023-04-01T09:34:52;13.13;;;9.98;;
17369;SDS011;8802;52.402;4.920;2023-04-01T09:37:21;12.07;;;9.80;;
17369;SDS011;8802;52.402;4.920;2023-04-01T09:40:08;10.88;;;9.45;;
17369;SDS011;8802;52.402;4.920;2023-04-01T09:42:43;10.05;;;8.10;;
17369;SDS011;8802;52.402;4.920;2023-04-01T09:48:14;7.93;;;6.97;;
17369;SDS011;8802;52.402;4.920;2023-04-01T09:51:03;10.35;;;8.20;;
17369;SDS011;8802;52.402;4.920;2023-04-01T09:53:45;8.23;;;7.40;;
17369;SDS011;8802;52.402;4.920;2023-04-01T10:08:34;7.35;;;6.55;;
17369;SDS011;8802;52.402;4.920;2023-04-01T10:11:44;7.05;;;6.35;;
17369;SDS011;8802;52.402;4.920;2023-04-01T10:21:02;7.03;;;6.07;;
17369;SDS011;8802;52.402;4.920;2023-04-01T10:23:44;6.70;;;5.80;;
17369;SDS011;8802;52.402;4.920;2023-04-01T10:32:42;8.73;;;6.15;;
17369;SDS011;8802;52.402;4.920;2023-04-01T10:39:19;9.70;;;6.70;;
17369;SDS011;8802;52.402;4.920;2023-04-01T10:42:11;9.18;;;8.10;;
17369;SDS011;8802;52.402;4.920;2023-04-01T10:45:24;8.35;;;7.55;;
17369;SDS011;8802;52.402;4.920;2023-04-01T10:51:50;10.35;;;8.32;;
17369;SDS011;8802;52.402;4.920;2023-04-01T10:54:47;8.40;;;7.03;;
17369;SDS011;8802;52.402;4.920;2023-04-01T10:57:27;8.38;;;7.53;;
17369;SDS011;8802;52.402;4.920;2023-04-01T11:00:18;10.30;;;8.85;;
17369;SDS011;8802;52.402;4.920;2023-04-01T11:03:25;9.32;;;8.43;;
17369;SDS011;8802;52.402;4.920;2023-04-01T11:06:30;9.82;;;8.60;;
17369;SDS011;8802;52.402;4.920;2023-04-01T11:09:33;8.27;;;7.47;;
17369;SDS011;8802;52.402;4.920;2023-04-01T11:12:38;7.18;;;6.47;;
17369;SDS011;8802;52.402;4.920;2023-04-01T11:18:25;7.97;;;7.18;;
17369;SDS011;8802;52.402;4.920;2023-04-01T11:24:30;8.55;;;7.78;;
17369;SDS011;8802;52.402;4.920;2023-04-01T11:27:18;8.18;;;7.38;;
17369;SDS011;8802;52.402;4.920;2023-04-01T11:30:12;8.30;;;7.53;;
17369;SDS011;8802;52.402;4.920;2023-04-01T11:32:48;9.10;;;8.20;;
17369;SDS011;8802;52.402;4.920;2023-04-01T11:35:28;8.23;;;7.32;;
17369;SDS011;8802;52.402;4.920;2023-04-01T11:41:08;9.00;;;8.10;;
17369;SDS011;8802;52.402;4.920;2023-04-01T11:43:53;9.65;;;8.63;;
17369;SDS011;8802;52.402;4.920;2023-04-01T11:46:36;9.80;;;8.90;;
17369;SDS011;8802;52.402;4.920;2023-04-01T11:49:13;11.80;;;10.60;;
17369;SDS011;8802;52.402;4.920;2023-04-01T11:51:54;11.35;;;10.25;;
17369;SDS011;8802;52.402;4.920;2023-04-01T11:54:33;10.02;;;8.98;;
17369;SDS011;8802;52.402;4.920;2023-04-01T11:57:14;10.35;;;9.32;;
17369;SDS011;8802;52.402;4.920;2023-04-01T11:59:59;10.52;;;9.40;;
17369;SDS011;8802;52.402;4.920;2023-04-01T12:02:34;10.18;;;9.20;;
17369;SDS011;8802;52.402;4.920;2023-04-01T12:05:18;10.90;;;9.82;;
17369;SDS011;8802;52.402;4.920;2023-04-01T12:08:00;8.98;;;8.18;;
17369;SDS011;8802;52.402;4.920;2023-04-01T12:10:37;10.18;;;9.18;;
17369;SDS011;8802;52.402;4.920;2023-04-01T12:13:09;9.30;;;8.40;;
17369;SDS011;8802;52.402;4.920;2023-04-01T12:15:51;10.45;;;9.45;;
17369;SDS011;8802;52.402;4.920;2023-04-01T12:18:26;10.48;;;9.45;;
17369;SDS011;8802;52.402;4.920;2023-04-01T12:21:03;10.95;;;9.80;;
17369;SDS011;8802;52.402;4.920;2023-04-01T12:23:53;12.02;;;10.50;;
17369;SDS011;8802;52.402;4.920;2023-04-01T12:27:05;9.10;;;8.20;;
17369;SDS011;8802;52.402;4.920;2023-04-01T12:32:53;9.50;;;8.50;;
17369;SDS011;8802;52.402;4.920;2023-04-01T12:35:32;9.38;;;8.45;;
17369;SDS011;8802;52.402;4.920;2023-04-01T12:38:14;8.13;;;7.35;;
17369;SDS011;8802;52.402;4.920;2023-04-01T12:43:44;6.97;;;6.13;;
17369;SDS011;8802;52.402;4.920;2023-04-01T12:46:26;7.90;;;5.68;;
17369;SDS011;8802;52.402;4.920;2023-04-01T12:49:09;5.68;;;5.18;;
17369;SDS011;8802;52.402;4.920;2023-04-01T12:51:50;5.00;;;4.50;;
17369;SDS011;8802;52.402;4.920;2023-04-01T12:54:48;4.80;;;4.40;;
17369;SDS011;8802;52.402;4.920;2023-04-01T12:57:51;6.13;;;5.30;;
17369;SDS011;8802;52.402;4.920;2023-04-01T13:00:49;6.07;;;5.10;;
17369;SDS011;8802;52.402;4.920;2023-04-01T13:03:36;5.75;;;5.25;;
17369;SDS011;8802;52.402;4.920;2023-04-01T13:06:29;6.35;;;5.75;;
17369;SDS011;8802;52.402;4.920;2023-04-01T13:09:17;7.03;;;6.30;;
17369;SDS011;8802;52.402;4.920;2023-04-01T13:11:57;7.40;;;6.20;;
17369;SDS011;8802;52.402;4.920;2023-04-01T13:14:50;6.80;;;6.20;;
17369;SDS011;8802;52.402;4.920;2023-04-01T13:17:36;7.13;;;6.03;;
17369;SDS011;8802;52.402;4.920;2023-04-01T13:20:14;7.45;;;5.78;;
17369;SDS011;8802;52.402;4.920;2023-04-01T13:22:55;5.60;;;5.10;;
17369;SDS011;8802;52.402;4.920;2023-04-01T13:25:32;5.60;;;5.03;;
17369;SDS011;8802;52.402;4.920;2023-04-01T13:28:05;5.22;;;4.72;;
17369;SDS011;8802;52.402;4.920;2023-04-01T13:30:39;4.97;;;4.50;;
17369;SDS011;8802;52.402;4.920;2023-04-01T13:33:15;5.55;;;5.05;;
17369;SDS011;8802;52.402;4.920;2023-04-01T13:35:55;6.07;;;4.93;;
17369;SDS011;8802;52.402;4.920;2023-04-01T13:38:44;5.28;;;4.78;;
17369;SDS011;8802;52.402;4.920;2023-04-01T13:41:25;7.70;;;4.93;;
17369;SDS011;8802;52.402;4.920;2023-04-01T13:44:02;5.10;;;4.70;;
17369;SDS011;8802;52.402;4.920;2023-04-01T13:46:41;6.55;;;5.88;;
17369;SDS011;8802;52.402;4.920;2023-04-01T13:49:31;6.45;;;5.63;;
17369;SDS011;8802;52.402;4.920;2023-04-01T13:52:20;5.45;;;4.95;;
17369;SDS011;8802;52.402;4.920;2023-04-01T13:55:30;5.68;;;5.28;;
17369;SDS011;8802;52.402;4.920;2023-04-01T14:01:10;6.28;;;5.50;;
17369;SDS011;8802;52.402;4.920;2023-04-01T14:03:50;6.80;;;6.10;;
17369;SDS011;8802;52.402;4.920;2023-04-01T14:06:34;6.28;;;5.68;;
17369;SDS011;8802;52.402;4.920;2023-04-01T14:09:11;6.57;;;5.40;;
17369;SDS011;8802;52.402;4.920;2023-04-01T14:11:59;6.97;;;5.78;;
17369;SDS011;8802;52.402;4.920;2023-04-01T14:14:35;7.93;;;6.30;;
17369;SDS011;8802;52.402;4.920;2023-04-01T14:20:22;6.72;;;6.13;;
17369;SDS011;8802;52.402;4.920;2023-04-01T14:23:03;5.97;;;5.47;;
17369;SDS011;8802;52.402;4.920;2023-04-01T14:25:55;6.72;;;6.05;;
17369;SDS011;8802;52.402;4.920;2023-04-01T14:28:39;6.57;;;5.90;;
17369;SDS011;8802;52.402;4.920;2023-04-01T14:34:05;7.38;;;5.55;;
17369;SDS011;8802;52.402;4.920;2023-04-01T14:36:43;6.20;;;5.70;;
17369;SDS011;8802;52.402;4.920;2023-04-01T14:39:30;7.28;;;5.75;;
17369;SDS011;8802;52.402;4.920;2023-04-01T14:42:15;6.60;;;5.75;;
17369;SDS011;8802;52.402;4.920;2023-04-01T14:44:57;8.88;;;5.65;;
17369;SDS011;8802;52.402;4.920;2023-04-01T14:47:43;5.70;;;5.10;;
17369;SDS011;8802;52.402;4.920;2023-04-01T14:50:15;6.32;;;5.72;;
17369;SDS011;8802;52.402;4.920;2023-04-01T14:52:46;5.95;;;5.43;;
17369;SDS011;8802;52.402;4.920;2023-04-01T14:55:26;6.00;;;4.85;;
17369;SDS011;8802;52.402;4.920;2023-04-01T14:57:59;6.03;;;5.45;;
17369;SDS011;8802;52.402;4.920;2023-04-01T15:00:41;5.00;;;4.60;;
17369;SDS011;8802;52.402;4.920;2023-04-01T15:03:20;5.53;;;5.03;;
17369;SDS011;8802;52.402;4.920;2023-04-01T15:05:53;5.68;;;5.18;;
17369;SDS011;8802;52.402;4.920;2023-04-01T15:08:27;5.78;;;5.28;;
17369;SDS011;8802;52.402;4.920;2023-04-01T15:16:50;5.32;;;4.82;;
17369;SDS011;8802;52.402;4.920;2023-04-01T15:19:29;5.68;;;4.13;;
17369;SDS011;8802;52.402;4.920;2023-04-01T15:22:15;5.15;;;4.63;;
17369;SDS011;8802;52.402;4.920;2023-04-01T15:24:56;5.20;;;4.70;;
17369;SDS011;8802;52.402;4.920;2023-04-01T15:27:37;5.30;;;4.88;;
17369;SDS011;8802;52.402;4.920;2023-04-01T15:30:18;4.82;;;4.47;;
17369;SDS011;8802;52.402;4.920;2023-04-01T15:32:58;5.88;;;4.43;;
17369;SDS011;8802;52.402;4.920;2023-04-01T15:35:45;7.22;;;4.93;;
17369;SDS011;8802;52.402;4.920;2023-04-01T15:38:19;5.25;;;4.75;;
17369;SDS011;8802;52.402;4.920;2023-04-01T15:40:55;5.47;;;4.97;;
17369;SDS011;8802;52.402;4.920;2023-04-01T15:43:31;5.28;;;4.75;;
17369;SDS011;8802;52.402;4.920;2023-04-01T15:49:13;7.93;;;7.22;;
17369;SDS011;8802;52.402;4.920;2023-04-01T15:51:48;6.30;;;5.78;;
17369;SDS011;8802;52.402;4.920;2023-04-01T15:54:27;9.10;;;8.30;;
17369;SDS011;8802;52.402;4.920;2023-04-01T15:57:09;5.88;;;5.28;;
17369;SDS011;8802;52.402;4.920;2023-04-01T16:02:44;8.45;;;7.68;;
17369;SDS011;8802;52.402;4.920;2023-04-01T16:05:33;7.40;;;6.57;;
17369;SDS011;8802;52.402;4.920;2023-04-01T16:08:10;8.23;;;7.25;;
17369;SDS011;8802;52.402;4.920;2023-04-01T16:10:52;4.50;;;4.10;;
17369;SDS011;8802;52.402;4.920;2023-04-01T16:13:37;5.07;;;4.10;;
17369;SDS011;8802;52.402;4.920;2023-04-01T16:16:14;6.35;;;5.10;;
17369;SDS011;8802;52.402;4.920;2023-04-01T16:18:56;5.18;;;4.45;;
17369;SDS011;8802;52.402;4.920;2023-04-01T16:21:36;4.57;;;4.07;;
17369;SDS011;8802;52.402;4.920;2023-04-01T16:24:14;4.70;;;4.30;;
17369;SDS011;8802;52.402;4.920;2023-04-01T16:26:47;4.30;;;3.90;;
17369;SDS011;8802;52.402;4.920;2023-04-01T16:29:20;6.75;;;4.00;;
17369;SDS011;8802;52.402;4.920;2023-04-01T16:31:55;6.28;;;3.72;;
17369;SDS011;8802;52.402;4.920;2023-04-01T16:34:31;4.63;;;3.58;;
17369;SDS011;8802;52.402;4.920;2023-04-01T16:37:05;3.67;;;3.38;;
17369;SDS011;8802;52.402;4.920;2023-04-01T16:39:41;4.05;;;3.70;;
17369;SDS011;8802;52.402;4.920;2023-04-01T16:42:17;3.83;;;3.47;;
17369;SDS011;8802;52.402;4.920;2023-04-01T16:44:53;3.95;;;3.60;;
17369;SDS011;8802;52.402;4.920;2023-04-01T16:47:23;3.90;;;3.58;;
17369;SDS011;8802;52.402;4.920;2023-04-01T16:49:56;4.20;;;3.80;;
17369;SDS011;8802;52.402;4.920;2023-04-01T16:52:31;3.63;;;3.33;;
17369;SDS011;8802;52.402;4.920;2023-04-01T16:55:15;3.92;;;3.63;;
17369;SDS011;8802;52.402;4.920;2023-04-01T16:57:45;3.40;;;3.10;;
17369;SDS011;8802;52.402;4.920;2023-04-01T17:00:17;4.03;;;3.53;;
17369;SDS011;8802;52.402;4.920;2023-04-01T17:02:57;3.60;;;3.30;;
17369;SDS011;8802;52.402;4.920;2023-04-01T17:05:39;3.33;;;3.13;;
17369;SDS011;8802;52.402;4.920;2023-04-01T17:08:24;3.30;;;3.00;;
17369;SDS011;8802;52.402;4.920;2023-04-01T17:10:59;3.55;;;3.25;;
17369;SDS011;8802;52.402;4.920;2023-04-01T17:13:35;3.70;;;3.42;;
17369;SDS011;8802;52.402;4.920;2023-04-01T17:16:13;3.83;;;3.50;;
17369;SDS011;8802;52.402;4.920;2023-04-01T17:18:59;4.03;;;3.30;;
17369;SDS011;8802;52.402;4.920;2023-04-01T17:21:39;3.45;;;3.22;;
17369;SDS011;8802;52.402;4.920;2023-04-01T17:24:23;3.00;;;2.80;;